CST,Max TemperatureF,Mean TemperatureF,Min TemperatureF,Max Dew PointF,MeanDew PointF,Min DewpointF,Max Humidity, Mean Humidity, Min Humidity, Max Sea Level PressureIn, Mean Sea Level PressureIn, Min Sea Level PressureIn, Max VisibilityMiles, Mean VisibilityMiles, Min VisibilityMiles, Max Wind SpeedMPH, Mean Wind SpeedMPH, Max Gust SpeedMPH,PrecipitationIn, CloudCover, Events, WindDirDegrees
2012-12-1,57,42,28,50,41,27,93,82,76,30.13,29.97,29.87,10,6,1,14,9,18,0.02,4,,153
2012-12-2,57,48,39,50,46,36,93,86,72,30.05,29.98,29.87,10,3,0,10,5,,0.00,4,,248
2012-12-3,68,57,46,59,51,36,94,80,62,30.00,29.85,29.75,10,6,0,26,13,36,0.00,4,,198
2012-12-4,59,44,30,36,30,23,87,66,31,30.36,30.17,29.98,10,10,10,20,7,23,0.00,0,,293
2012-12-5,39,32,24,28,20,16,86,62,42,30.46,30.34,30.16,10,10,10,18,9,22,0.00,0,,102
2012-12-6,46,40,35,37,32,27,87,72,61,30.16,30.01,29.91,10,10,10,16,10,,0.01,3,,191
2012-12-7,41,37,33,37,31,27,87,76,57,29.99,29.95,29.91,10,10,2,15,6,,0.02,5,,34
2012-12-8,37,34,30,30,29,27,93,82,70,30.08,30.03,29.94,10,8,2,18,8,,0.08,5,,48
2012-12-9,37,32,26,34,31,21,93,85,80,30.04,29.87,29.79,10,6,1,25,12,32,0.04,7,,82
2012-12-10,28,24,17,23,20,14,86,80,74,30.01,29.90,29.81,10,10,7,24,17,29,0.00,8,,287
2012-12-11,35,24,14,21,17,10,93,71,52,30.14,30.03,29.98,10,10,6,18,8,22,0.00,3,,220
2012-12-12,46,35,24,23,20,18,74,57,37,30.25,30.19,30.14,10,10,10,23,9,28,0.00,0,,189
2012-12-13,48,39,30,23,21,19,69,53,34,30.22,30.16,30.09,10,10,10,24,12,29,0.00,0,,198
2012-12-14,48,34,19,36,26,16,86,68,46,30.18,30.10,29.97,10,10,8,16,7,21,0.08,1,,130
2012-12-15,48,44,39,45,41,36,93,87,81,29.96,29.67,29.52,10,8,2,21,13,33,0.43,8,,180
2012-12-16,46,40,33,41,33,28,93,82,75,29.78,29.70,29.60,10,8,5,20,13,26,0.00,8,,292
2012-12-17,33,32,28,28,27,25,93,84,75,29.77,29.75,29.71,10,5,1,9,5,,0.00,8,,321
2012-12-18,41,34,26,34,30,23,87,82,76,29.91,29.70,29.55,9,5,2,23,9,28,0.00,6,,225
2012-12-19,35,34,32,30,28,27,87,80,75,30.06,29.96,29.69,8,5,1,22,8,30,0.08,6,Thunderstorm,74
2012-12-20,35,28,21,32,27,16,93,85,74,29.78,29.46,29.24,7,2,0,41,24,51,1.47,6,Thunderstorm,356
2012-12-21,21,14,8,16,9,3,85,74,68,30.26,30.11,29.79,10,10,3,31,19,38,0.00,0,,297
2012-12-22,26,16,6,18,9,1,93,78,59,30.26,30.12,29.96,10,10,7,13,5,,0.00,0,,134
2012-12-23,24,17,10,19,14,7,92,82,68,30.06,30.01,29.95,10,9,7,14,7,16,0.00,1,,37
2012-12-24,26,24,23,21,20,18,86,81,74,30.18,30.00,29.92,10,7,2,16,9,,0.00,5,,347
2012-12-25,23,16,8,16,9,3,85,74,68,30.39,30.30,30.19,10,10,10,17,12,,0.00,3,,7
2012-12-26,26,22,15,18,15,10,86,75,69,30.25,30.18,30.12,10,10,10,21,14,23,0.00,8,,1
2012-12-27,26,18,10,21,15,3,85,77,69,30.24,30.18,30.12,10,10,10,14,9,,0.00,6,,49
2012-12-28,28,27,26,25,23,21,93,83,74,30.11,30.01,29.93,10,6,2,10,7,,0.00,4,,106
2012-12-29,26,17,8,21,15,3,92,79,68,30.27,30.09,29.93,10,8,2,23,12,28,0.00,6,,302
2012-12-30,35,20,5,23,13,1,92,75,56,30.34,30.23,30.04,10,7,3,22,5,26,0.00,0,,194
2012-12-31,35,26,15,23,14,9,80,71,60,30.21,30.11,30.03,10,10,10,21,14,25,0.00,4,,296